Time;durP1;ratioP1;P1;durP2;ratioP2;P2;SDS_P1;SDS_P2;PMS_P1;PMS_P2;Temp;Humidity;BMP_temperature;BMP_pressure;BME280_temperature;BME280_humidity;BME280_pressure;Samples;Min_cycle;Max_cycle;Signal;HPM_P1;HPM_P2
2022/12/22 03:26:18;;;;;;;7.17;6.20;;;;;;;7.75;100.00;99653.84;5051617;28;20204;-83
2022/12/22 03:28:44;;;;;;;6.60;5.90;;;;;;;7.75;100.00;99650.34;5052110;28;20267;-83
2022/12/22 03:31:11;;;;;;;6.03;5.33;;;;;;;7.76;100.00;99652.91;5051607;28;20225;-82
2022/12/22 03:33:39;;;;;;;8.87;6.03;;;;;;;7.77;100.00;99657.25;5053468;28;20225;-84
2022/12/22 03:36:07;;;;;;;7.37;5.93;;;;;;;7.79;100.00;99655.34;5051259;28;20217;-84
2022/12/22 03:38:34;;;;;;;6.27;5.40;;;;;;;7.80;100.00;99646.44;5053504;28;20578;-84
2022/12/22 03:41:01;;;;;;;6.97;5.30;;;;;;;7.84;100.00;99650.59;5055773;28;20660;-83
2022/12/22 03:46:31;;;;;;;6.27;5.67;;;;;;;7.86;100.00;99645.19;5055339;28;20591;-83
2022/12/22 03:49:11;;;;;;;6.40;5.80;;;;;;;7.87;100.00;99642.44;5054139;28;20676;-83
2022/12/22 03:51:41;;;;;;;6.30;5.70;;;;;;;7.88;100.00;99640.63;5048236;28;20218;-83
2022/12/22 03:54:09;;;;;;;6.63;6.03;;;;;;;7.88;100.00;99643.28;5054007;28;20230;-83
2022/12/22 03:56:35;;;;;;;6.77;5.70;;;;;;;7.90;100.00;99630.75;5053253;28;20228;-84
2022/12/22 03:59:02;;;;;;;6.40;5.80;;;;;;;7.90;100.00;99633.41;5046877;28;20210;-83
2022/12/22 04:01:29;;;;;;;6.60;5.83;;;;;;;7.91;100.00;99627.16;5049757;28;20209;-84
2022/12/22 04:03:55;;;;;;;6.50;5.90;;;;;;;7.90;100.00;99618.34;5048800;28;20210;-83
2022/12/22 04:06:23;;;;;;;7.60;5.60;;;;;;;7.92;100.00;99610.28;5054526;28;20210;-85
2022/12/22 04:08:50;;;;;;;6.00;5.40;;;;;;;7.93;100.00;99610.19;5049987;28;20205;-82
2022/12/22 04:14:01;;;;;;;7.60;5.57;;;;;;;7.93;100.00;99617.28;5048625;28;20287;-83
2022/12/22 04:16:28;;;;;;;7.67;6.03;;;;;;;7.91;100.00;99613.91;5049884;28;20205;-83
2022/12/22 04:18:54;;;;;;;6.60;5.90;;;;;;;7.89;100.00;99599.91;5049421;28;20726;-82
2022/12/22 04:21:22;;;;;;;7.07;6.03;;;;;;;7.89;100.00;99605.19;5050293;28;20953;-84
2022/12/22 04:23:50;;;;;;;8.20;5.90;;;;;;;7.87;100.00;99605.31;5052001;28;20310;-82
2022/12/22 04:26:17;;;;;;;8.40;6.83;;;;;;;7.85;100.00;99606.38;5050404;28;20233;-82
2022/12/22 04:28:43;;;;;;;8.30;6.40;;;;;;;7.86;100.00;99611.59;5047254;28;20629;-82
2022/12/22 04:31:10;;;;;;;6.87;5.97;;;;;;;7.85;100.00;99598.44;5046861;28;20232;-82
2022/12/22 04:33:36;;;;;;;7.50;6.10;;;;;;;7.85;100.00;99595.78;5043655;28;20233;-83
2022/12/22 04:36:03;;;;;;;7.60;6.17;;;;;;;7.83;100.00;99589.72;5049481;28;20204;-82
2022/12/22 04:38:31;;;;;;;8.57;6.70;;;;;;;7.82;100.00;99590.69;5048874;28;20595;-82
2022/12/22 04:40:57;;;;;;;8.10;6.07;;;;;;;7.81;100.00;99599.59;5043816;28;20756;-82
2022/12/22 04:43:24;;;;;;;7.53;6.83;;;;;;;7.79;100.00;99586.44;5048939;28;20226;-81
2022/12/22 04:45:53;;;;;;;9.53;7.60;;;;;;;7.79;100.00;99585.59;5041377;28;20221;-84
2022/12/22 04:48:20;;;;;;;9.17;6.77;;;;;;;7.77;100.00;99583.03;5045322;28;20201;-85
2022/12/22 04:50:49;;;;;;;7.33;5.77;;;;;;;7.77;100.00;99571.59;5046253;28;20235;-83
2022/12/22 04:53:16;;;;;;;7.20;5.90;;;;;;;7.76;100.00;99569.88;5047484;28;20226;-83
2022/12/22 04:55:46;;;;;;;7.00;6.20;;;;;;;7.74;100.00;99566.50;5048369;28;20216;-82
2022/12/22 04:58:13;;;;;;;6.53;5.80;;;;;;;7.74;100.00;99562.03;5048252;28;20202;-83
2022/12/22 05:00:39;;;;;;;6.87;6.07;;;;;;;7.73;100.00;99557.69;5042895;28;20213;-83
2022/12/22 05:03:06;;;;;;;8.07;6.70;;;;;;;7.75;100.00;99555.78;5044757;28;20226;-82
2022/12/22 05:05:33;;;;;;;8.37;7.10;;;;;;;7.76;100.00;99548.69;5044834;28;20284;-83
2022/12/22 05:07:59;;;;;;;8.10;7.30;;;;;;;7.76;100.00;99546.03;5047284;28;20203;-83
2022/12/22 05:10:26;;;;;;;7.53;6.60;;;;;;;7.77;100.00;99529.19;5041461;28;20622;-83
2022/12/22 05:12:57;;;;;;;8.83;7.23;;;;;;;7.78;100.00;99525.59;5041128;28;20225;-83
2022/12/22 05:15:25;;;;;;;9.07;7.40;;;;;;;7.79;100.00;99529.94;5038087;28;20206;-83
2022/12/22 05:17:52;;;;;;;8.53;7.03;;;;;;;7.77;100.00;99522.09;5035998;28;20731;-82
2022/12/22 05:20:19;;;;;;;8.63;7.60;;;;;;;7.78;100.00;99529.09;5043205;28;20206;-82
2022/12/22 05:22:46;;;;;;;9.13;7.40;;;;;;;7.79;100.00;99516.69;5048091;28;20226;-83
2022/12/22 05:25:15;;;;;;;9.23;7.23;;;;;;;7.79;100.00;99514.03;5040922;28;20214;-83
2022/12/22 05:27:41;;;;;;;8.73;7.63;;;;;;;7.79;100.00;99512.22;5039792;28;20205;-85
2022/12/22 05:30:11;;;;;;;11.37;8.63;;;;;;;7.79;100.00;99506.91;5044717;28;20204;-83
2022/12/22 05:32:39;;;;;;;9.70;8.23;;;;;;;7.79;100.00;99517.53;5040612;28;20718;-84
2022/12/22 05:35:07;;;;;;;9.53;8.37;;;;;;;7.80;100.00;99513.06;5040244;28;20209;-83
2022/12/22 05:37:34;;;;;;;11.10;8.20;;;;;;;7.80;100.00;99508.63;5044292;28;20661;-84
2022/12/22 05:40:01;;;;;;;10.23;7.77;;;;;;;7.81;100.00;99515.63;5041772;28;20213;-84
2022/12/22 05:42:36;;;;;;;9.90;7.73;;;;;;;7.83;100.00;99508.41;5046152;28;20229;-84
2022/12/22 05:45:05;;;;;;;9.03;7.80;;;;;;;7.85;100.00;99500.34;5048440;28;20193;-84
2022/12/22 05:47:33;;;;;;;9.33;7.70;;;;;;;7.84;100.00;99499.50;5042131;28;20723;-84
2022/12/22 05:50:00;;;;;;;8.50;6.37;;;;;;;7.87;100.00;99491.34;5045160;28;20205;-82
2022/12/22 05:52:33;;;;;;;9.17;6.83;;;;;;;7.90;100.00;99493.75;5044633;28;20229;-84
2022/12/22 05:54:59;;;;;;;7.20;6.47;;;;;;;7.92;100.00;99491.00;5046002;28;20205;-84
2022/12/22 05:57:25;;;;;;;7.80;6.40;;;;;;;7.92;100.00;99489.19;5050425;28;20585;-84
2022/12/22 05:59:53;;;;;;;7.40;5.80;;;;;;;7.91;100.00;99487.50;5043137;28;20206;-84
2022/12/22 06:02:20;;;;;;;7.10;6.37;;;;;;;7.87;100.00;99480.75;5047171;28;20226;-84
2022/12/22 06:04:48;;;;;;;6.97;6.10;;;;;;;7.85;100.00;99480.00;5049275;28;20217;-84
2022/12/22 06:07:14;;;;;;;9.37;8.00;;;;;;;7.84;100.00;99475.66;5049185;28;20209;-83
2022/12/22 06:09:41;;;;;;;7.77;6.70;;;;;;;7.83;100.00;99473.09;5047120;28;20215;-82
2022/12/22 06:12:08;;;;;;;9.63;7.37;;;;;;;7.83;100.00;99481.06;5054903;28;20233;-82
2022/12/22 06:14:34;;;;;;;8.33;6.63;;;;;;;7.82;100.00;99480.22;5055976;28;20209;-82
2022/12/22 06:17:01;;;;;;;9.30;7.43;;;;;;;7.83;100.00;99475.75;5053816;28;20671;-85
2022/12/22 06:19:27;;;;;;;8.27;7.10;;;;;;;7.81;100.00;99473.22;5046892;28;20249;-82
2022/12/22 06:21:55;;;;;;;9.47;7.30;;;;;;;7.83;100.00;99473.09;5045036;28;20229;-83
2022/12/22 06:24:22;;;;;;;9.30;7.90;;;;;;;7.82;100.00;99474.91;5047174;28;20677;-83
2022/12/22 06:26:48;;;;;;;9.77;8.30;;;;;;;7.83;100.00;99470.44;5056081;28;20201;-83
2022/12/22 06:29:15;;;;;;;9.37;7.67;;;;;;;7.83;100.00;99465.16;5051587;28;20241;-84
2022/12/22 06:31:41;;;;;;;9.43;7.67;;;;;;;7.83;100.00;99465.16;5064058;28;20221;-84
2022/12/22 06:34:08;;;;;;;9.23;7.37;;;;;;;7.83;100.00;99466.00;5054656;28;20210;-82
2022/12/22 06:36:35;;;;;;;9.43;8.43;;;;;;;7.82;100.00;99464.31;5042790;28;20657;-84
2022/12/22 06:39:03;;;;;;;10.43;8.33;;;;;;;7.81;100.00;99465.25;5043216;28;20210;-82
2022/12/22 06:44:15;;;;;;;10.13;8.20;;;;;;;7.81;100.00;99464.41;5051679;28;20290;-84
2022/12/22 06:46:42;;;;;;;9.87;8.03;;;;;;;7.81;100.00;99456.47;5064552;28;20217;-84
2022/12/22 06:49:08;;;;;;;11.10;7.40;;;;;;;7.79;100.00;99456.56;5056746;28;20209;-84
2022/12/22 06:51:34;;;;;;;10.90;7.57;;;;;;;7.80;100.00;99454.75;5044539;28;20221;-84
2022/12/22 06:54:02;;;;;;;10.77;8.20;;;;;;;7.80;100.00;99458.25;5066910;28;20580;-83
2022/12/22 06:56:29;;;;;;;10.83;7.67;;;;;;;7.80;100.00;99452.09;5056552;28;20220;-83
2022/12/22 06:58:55;;;;;;;12.27;9.10;;;;;;;7.80;100.00;99450.31;5051135;28;20202;-84
2022/12/22 07:01:22;;;;;;;13.57;8.07;;;;;;;7.82;100.00;99453.69;5055003;28;20205;-85
2022/12/22 07:03:48;;;;;;;13.47;9.03;;;;;;;7.81;100.00;99456.47;5050065;28;20583;-81
2022/12/22 07:06:17;;;;;;;9.80;7.40;;;;;;;7.80;100.00;99446.81;5062870;28;20682;-84
2022/12/22 07:08:43;;;;;;;11.20;8.93;;;;;;;7.80;100.00;99442.34;5049281;28;20209;-83
2022/12/22 07:11:11;;;;;;;9.20;8.17;;;;;;;7.81;100.00;99451.16;5050390;28;20232;-82
2022/12/22 07:13:38;;;;;;;9.80;8.17;;;;;;;7.81;100.00;99443.19;5054964;28;20725;-82
2022/12/22 07:16:07;;;;;;;10.30;8.63;;;;;;;7.81;100.00;99445.84;5053333;28;20568;-82
2022/12/22 07:18:35;;;;;;;8.77;7.83;;;;;;;7.83;100.00;99444.78;5061630;28;20217;-82
2022/12/22 07:21:04;;;;;;;10.47;8.77;;;;;;;7.83;100.00;99428.03;5034685;28;20198;-82
2022/12/22 07:23:31;;;;;;;11.53;9.67;;;;;;;7.85;100.00;99434.94;5038148;28;20214;-82
2022/12/22 07:25:57;;;;;;;11.70;9.83;;;;;;;7.86;100.00;99430.47;5063319;28;20244;-84
2022/12/22 07:28:25;;;;;;;12.30;9.60;;;;;;;7.86;100.00;99433.97;5052667;28;20580;-81
2022/12/22 07:30:53;;;;;;;11.23;8.80;;;;;;;7.88;100.00;99436.53;5053422;28;20202;-83
2022/12/22 07:33:20;;;;;;;9.93;8.57;;;;;;;7.88;100.00;99433.88;5053818;28;20238;-85
2022/12/22 07:35:46;;;;;;;10.67;8.40;;;;;;;7.90;100.00;99430.13;5044464;28;20801;-83
2022/12/22 07:38:13;;;;;;;9.90;7.93;;;;;;;7.91;100.00;99433.63;5046598;28;20201;-82
2022/12/22 07:40:39;;;;;;;9.23;7.50;;;;;;;7.92;100.00;99425.56;5052530;28;20210;-81
2022/12/22 07:43:05;;;;;;;9.50;8.33;;;;;;;7.93;100.00;99427.25;5064492;28;20240;-84
2022/12/22 07:45:33;;;;;;;8.40;7.27;;;;;;;7.94;100.00;99428.97;5045286;28;20198;-83
2022/12/22 07:48:01;;;;;;;10.33;7.70;;;;;;;7.95;100.00;99427.16;5047464;28;20210;-83
2022/12/22 07:50:27;;;;;;;9.90;7.43;;;;;;;7.93;100.00;99423.75;5039835;28;20673;-84
2022/12/22 07:52:54;;;;;;;9.17;7.07;;;;;;;7.93;100.00;99421.97;5045809;28;20225;-81
2022/12/22 07:55:21;;;;;;;7.83;6.67;;;;;;;7.89;100.00;99414.34;5052532;28;20213;-82
2022/12/22 07:57:48;;;;;;;9.40;6.50;;;;;;;7.88;100.00;99417.97;5050674;28;20651;-82
2022/12/22 08:00:16;;;;;;;7.47;6.50;;;;;;;7.85;100.00;99415.53;5054285;28;20796;-81
2022/12/22 08:02:48;;;;;;;9.10;7.40;;;;;;;7.81;100.00;99414.06;5065852;28;20228;-81
2022/12/22 08:05:15;;;;;;;7.27;6.37;;;;;;;7.78;100.00;99414.25;5064735;28;20201;-82
2022/12/22 08:07:41;;;;;;;7.60;6.37;;;;;;;7.76;100.00;99421.47;5060729;28;20217;-81
2022/12/22 08:10:09;;;;;;;7.43;6.37;;;;;;;7.73;100.00;99416.38;5060320;28;20703;-82
2022/12/22 08:12:35;;;;;;;8.67;7.07;;;;;;;7.69;100.00;99414.94;5051903;28;20221;-81
2022/12/22 08:15:02;;;;;;;8.63;6.87;;;;;;;7.69;100.00;99417.59;5050973;28;20201;-83
2022/12/22 08:17:29;;;;;;;8.47;7.33;;;;;;;7.68;100.00;99416.75;5047299;28;20225;-82
2022/12/22 08:19:57;;;;;;;10.13;7.23;;;;;;;7.68;100.00;99421.19;5053324;28;20236;-80
2022/12/22 08:22:24;;;;;;;8.60;7.13;;;;;;;7.68;100.00;99418.53;5044832;28;20221;-83
2022/12/22 08:24:51;;;;;;;9.70;7.53;;;;;;;7.68;100.00;99418.53;5058323;28;20201;-84
2022/12/22 08:27:22;;;;;;;12.13;8.70;;;;;;;7.70;100.00;99425.44;5055104;28;20206;-83
2022/12/22 08:29:54;;;;;;;11.50;8.37;;;;;;;7.71;100.00;99418.28;5054103;28;20248;-81
2022/12/22 08:32:21;;;;;;;10.53;8.20;;;;;;;7.71;100.00;99431.53;5048809;28;20235;-80
2022/12/22 08:34:49;;;;;;;9.40;7.57;;;;;;;7.72;100.00;99428.78;5038315;28;20238;-82
2022/12/22 08:37:20;;;;;;;11.80;8.67;;;;;;;7.72;100.00;99426.13;5052181;28;20202;-82
2022/12/22 08:39:51;;;;;;;10.73;7.90;;;;;;;7.73;100.00;99425.19;5050262;28;20600;-81
2022/12/22 08:42:20;;;;;;;10.27;7.67;;;;;;;7.74;100.00;99429.53;5051041;28;20428;-83
2022/12/22 08:44:51;;;;;;;11.43;8.40;;;;;;;7.74;100.00;99431.34;5043499;28;20577;-83
2022/12/22 08:47:18;;;;;;;10.37;8.10;;;;;;;7.75;100.00;99430.38;5049452;28;20798;-82
2022/12/22 08:49:45;;;;;;;10.57;8.57;;;;;;;7.75;100.00;99425.06;5042456;28;20205;-82
2022/12/22 08:52:11;;;;;;;11.80;9.27;;;;;;;7.76;100.00;99432.06;5053165;28;20236;-82
2022/12/22 08:54:39;;;;;;;12.33;8.97;;;;;;;7.77;100.00;99431.13;5053586;28;20653;-81
2022/12/22 08:57:06;;;;;;;12.43;9.33;;;;;;;7.76;100.00;99440.88;5049214;28;20570;-81
2022/12/22 08:59:33;;;;;;;12.97;8.87;;;;;;;7.77;100.00;99431.13;5052469;28;20523;-82
2022/12/22 09:02:03;;;;;;;13.53;9.03;;;;;;;7.78;100.00;99438.97;5051614;28;20696;-82
2022/12/22 09:04:31;;;;;;;12.23;8.97;;;;;;;7.77;100.00;99433.78;5052762;28;20286;-83
2022/12/22 09:06:57;;;;;;;10.77;8.43;;;;;;;7.78;100.00;99433.66;5049141;28;20218;-81
2022/12/22 09:09:24;;;;;;;11.43;8.27;;;;;;;7.79;100.00;99437.16;5042157;28;20202;-82
2022/12/22 09:11:52;;;;;;;10.83;9.07;;;;;;;7.80;100.00;99436.22;5052912;28;20255;-83
2022/12/22 09:14:18;;;;;;;12.53;8.60;;;;;;;7.83;100.00;99433.34;5049917;28;20663;-84
2022/12/22 09:16:45;;;;;;;11.97;9.53;;;;;;;7.85;100.00;99437.59;5051878;28;20201;-83
2022/12/22 09:19:11;;;;;;;13.93;10.33;;;;;;;7.85;100.00;99442.88;5048467;28;20213;-83
2022/12/22 09:21:38;;;;;;;11.70;9.77;;;;;;;7.89;100.00;99448.78;5050938;28;20190;-83
2022/12/22 09:24:06;;;;;;;12.53;9.60;;;;;;;7.91;100.00;99446.88;5051804;28;20213;-83
2022/12/22 09:26:33;;;;;;;13.73;9.97;;;;;;;7.92;100.00;99446.78;5041498;28;20618;-82
2022/12/22 09:29:01;;;;;;;12.33;9.00;;;;;;;7.95;100.00;99445.72;5051464;28;20695;-82
2022/12/22 09:31:28;;;;;;;10.60;8.83;;;;;;;7.96;100.00;99436.81;5048963;28;20208;-84
2022/12/22 09:33:54;;;;;;;10.27;8.60;;;;;;;7.98;100.00;99442.84;5057035;28;20232;-83
2022/12/22 09:36:23;;;;;;;13.93;8.63;;;;;;;8.00;100.00;99444.44;5044343;28;20201;-81
2022/12/22 09:38:50;;;;;;;9.70;8.23;;;;;;;8.03;100.00;99443.38;5044291;28;20202;-82
2022/12/22 09:41:21;;;;;;;10.10;7.97;;;;;;;8.04;100.00;99446.88;5052877;28;20601;-80
2022/12/22 09:43:48;;;;;;;8.43;7.37;;;;;;;8.06;100.00;99445.78;5037501;28;20221;-82
2022/12/22 09:46:21;;;;;;;10.47;8.00;;;;;;;8.09;100.00;99448.22;5051679;28;20201;-81
2022/12/22 09:48:48;;;;;;;8.60;7.43;;;;;;;8.11;100.00;99445.44;5041798;28;20649;-81
2022/12/22 09:51:16;;;;;;;8.20;7.37;;;;;;;8.13;100.00;99452.34;5052313;28;20202;-81
2022/12/22 09:53:44;;;;;;;7.00;6.10;;;;;;;8.15;100.00;99460.19;5044399;28;20242;-81
2022/12/22 09:56:14;;;;;;;6.90;5.97;;;;;;;8.17;100.00;99456.47;5043468;28;20212;-83
2022/12/22 09:58:41;;;;;;;9.73;7.47;;;;;;;8.20;100.00;99463.38;5040190;28;20214;-83
2022/12/22 10:01:19;;;;;;;9.70;7.37;;;;;;;8.23;100.00;99477.25;5046798;28;20210;-82
2022/12/22 10:03:53;;;;;;;8.73;7.53;;;;;;;8.23;100.00;99479.91;5034696;28;20233;-83
2022/12/22 10:06:24;;;;;;;7.67;6.47;;;;;;;8.22;100.00;99478.22;5040028;28;20573;-84
2022/12/22 10:08:53;;;;;;;7.70;6.40;;;;;;;8.21;100.00;99479.19;5040409;28;20203;-82
2022/12/22 10:11:20;;;;;;;7.03;6.00;;;;;;;8.21;100.00;99476.53;5053193;28;20226;-83
2022/12/22 10:13:47;;;;;;;7.60;6.80;;;;;;;8.21;100.00;99479.19;5046798;28;20315;-80
2022/12/22 10:16:21;;;;;;;7.37;6.53;;;;;;;8.21;100.00;99484.47;5053917;28;20691;-81
2022/12/22 10:18:59;;;;;;;9.33;8.37;;;;;;;8.22;100.00;99496.78;5043669;28;20240;-82
2022/12/22 10:21:26;;;;;;;9.50;7.30;;;;;;;8.22;100.00;99487.97;5048665;28;20536;-81
2022/12/22 10:23:53;;;;;;;9.17;7.90;;;;;;;8.22;100.00;99495.94;5061263;28;20685;-83
2022/12/22 10:26:23;;;;;;;8.67;7.70;;;;;;;8.23;100.00;99500.28;5047237;28;20688;-81
2022/12/22 10:28:54;;;;;;;8.73;6.90;;;;;;;8.23;100.00;99498.47;5048375;28;20761;-82
2022/12/22 10:31:23;;;;;;;9.17;7.53;;;;;;;8.22;100.00;99496.78;5044589;28;20201;-81
2022/12/22 10:33:52;;;;;;;8.60;7.37;;;;;;;8.24;100.00;99494.03;5040694;28;20231;-82
2022/12/22 10:36:23;;;;;;;8.70;7.40;;;;;;;8.24;100.00;99492.19;5056476;28;20198;-82
2022/12/22 10:39:00;;;;;;;9.07;8.07;;;;;;;8.27;100.00;99496.44;5044228;28;20228;-83
2022/12/22 10:41:28;;;;;;;10.70;8.63;;;;;;;8.30;100.00;99491.75;5045237;28;20220;-82
2022/12/22 10:43:58;;;;;;;11.67;8.67;;;;;;;8.34;100.00;99489.78;5044307;28;20218;-82
2022/12/22 10:46:34;;;;;;;11.30;8.23;;;;;;;8.35;100.00;99505.56;5048786;28;20293;-83
2022/12/22 10:49:22;;;;;;;9.47;7.60;;;;;;;8.39;100.00;99508.00;5046868;28;20224;-82
2022/12/22 10:51:56;;;;;;;16.03;13.40;;;;;;;8.43;100.00;99509.47;5041221;28;20218;-82
2022/12/22 10:54:28;;;;;;;11.83;9.50;;;;;;;8.45;100.00;99515.50;5042855;28;20198;-82
2022/12/22 10:57:06;;;;;;;12.77;11.10;;;;;;;8.49;100.00;99511.69;5043547;28;20205;-83
2022/12/22 10:59:33;;;;;;;34.53;28.20;;;;;;;8.50;100.00;99519.53;5049694;28;20198;-83
2022/12/22 11:02:32;;;;;;;29.73;23.70;;;;;;;8.53;100.00;99514.00;5044144;28;20221;-80
2022/12/22 11:05:03;;;;;;;18.57;15.30;;;;;;;8.58;100.00;99524.28;5036451;28;20289;-82
2022/12/22 11:07:33;;;;;;;36.10;24.03;;;;;;;8.60;100.00;99523.19;5043497;28;20289;-82
2022/12/22 11:10:00;;;;;;;50.10;29.93;;;;;;;8.63;100.00;99520.31;5042843;28;20206;-82
2022/12/22 11:12:40;;;;;;;33.17;22.37;;;;;;;8.67;100.00;99520.94;5047150;28;20233;-82
2022/12/22 11:15:27;;;;;;;57.90;35.03;;;;;;;8.71;100.00;99530.38;5045678;28;20204;-82
2022/12/22 11:18:02;;;;;;;12.63;9.77;;;;;;;8.74;100.00;99537.28;5046112;28;20245;-82
2022/12/22 11:20:51;;;;;;;25.07;18.50;;;;;;;8.76;100.00;99541.53;5045016;28;20287;-82
2022/12/22 11:23:26;;;;;;;11.00;7.80;;;;;;;8.77;100.00;99548.53;5041619;28;20218;-82
2022/12/22 11:26:03;;;;;;;9.43;7.80;;;;;;;8.77;100.00;99548.53;5041779;28;20201;-83
2022/12/22 11:28:43;;;;;;;15.30;12.27;;;;;;;8.78;100.00;99550.19;5042417;28;20198;-82
2022/12/22 11:31:23;;;;;;;14.20;10.83;;;;;;;8.79;100.00;99551.91;5047054;28;20204;-82
2022/12/22 11:34:02;;;;;;;12.90;11.07;;;;;;;8.79;100.00;99548.38;5042021;28;20232;-83
2022/12/22 11:36:49;;;;;;;11.40;9.50;;;;;;;8.80;100.00;99552.75;5047326;28;20695;-81
2022/12/22 11:39:24;;;;;;;9.87;7.83;;;;;;;8.80;100.00;99556.25;5040092;28;20194;-83
2022/12/22 11:42:02;;;;;;;6.97;6.27;;;;;;;8.80;100.00;99553.59;5045018;28;20206;-84
2022/12/22 11:44:45;;;;;;;7.53;6.73;;;;;;;8.81;100.00;99549.13;5044403;28;20564;-81
2022/12/22 11:47:19;;;;;;;7.23;5.73;;;;;;;8.78;100.00;99566.13;5041623;28;20201;-83
2022/12/22 11:50:06;;;;;;;7.27;6.07;;;;;;;8.80;100.00;99561.56;5047965;28;20680;-85
2022/12/22 11:52:47;;;;;;;7.63;5.67;;;;;;;8.81;100.00;99568.56;5049830;28;20226;-83
2022/12/22 11:55:27;;;;;;;8.63;6.97;;;;;;;8.82;100.00;99574.72;5041983;28;20198;-83
2022/12/22 11:58:05;;;;;;;7.50;6.10;;;;;;;8.82;100.00;99588.84;5040791;28;20201;-83
2022/12/22 12:00:40;;;;;;;7.53;5.83;;;;;;;8.84;100.00;99591.38;5052810;28;20185;-82
2022/12/22 12:03:38;;;;;;;8.77;6.47;;;;;;;8.83;100.00;99595.84;5052233;28;20236;-83
2022/12/22 12:06:26;;;;;;;7.00;6.17;;;;;;;8.83;100.00;99598.50;5047631;28;20672;-82
2022/12/22 12:09:08;;;;;;;9.00;7.20;;;;;;;8.83;100.00;99608.28;5052168;28;20209;-83
2022/12/22 12:11:43;;;;;;;13.00;9.90;;;;;;;8.79;100.00;99610.31;5051960;28;20663;-83
2022/12/22 12:14:21;;;;;;;14.20;10.17;;;;;;;8.78;100.00;99608.59;5041045;28;20221;-84
2022/12/22 12:16:56;;;;;;;12.70;9.90;;;;;;;8.78;100.00;99619.22;5047904;28;20591;-83
2022/12/22 12:19:45;;;;;;;14.77;11.90;;;;;;;8.78;100.00;99619.22;5051258;28;20213;-81
2022/12/22 12:22:17;;;;;;;16.43;12.43;;;;;;;8.78;100.00;99624.53;5046383;28;20241;-84
2022/12/22 12:25:01;;;;;;;16.13;11.30;;;;;;;8.78;100.00;99619.22;5044694;28;20213;-84
2022/12/22 12:27:49;;;;;;;16.63;11.87;;;;;;;8.80;100.00;99624.41;5046520;28;20316;-84
2022/12/22 12:30:18;;;;;;;17.83;12.40;;;;;;;8.80;100.00;99622.63;5048095;28;20205;-82
2022/12/22 12:32:51;;;;;;;15.17;10.57;;;;;;;8.81;100.00;99616.34;5047737;28;20238;-83
2022/12/22 12:35:36;;;;;;;14.87;10.73;;;;;;;8.83;100.00;99606.47;5048349;28;20204;-82
2022/12/22 12:38:09;;;;;;;16.23;12.07;;;;;;;8.85;100.00;99596.59;5044190;28;20197;-82
2022/12/22 12:40:47;;;;;;;17.60;13.23;;;;;;;8.88;100.00;99614.09;5047566;28;20199;-84
2022/12/22 12:43:17;;;;;;;18.30;12.40;;;;;;;8.90;100.00;99625.47;5048095;28;20217;-82
2022/12/22 12:45:44;;;;;;;19.47;13.17;;;;;;;8.93;100.00;99630.56;5046617;28;20209;-82
2022/12/22 12:48:36;;;;;;;16.33;11.80;;;;;;;8.94;100.00;99640.22;5053881;28;20209;-82
2022/12/22 12:51:41;;;;;;;15.90;11.10;;;;;;;8.95;100.00;99642.78;5042612;28;20206;-82
2022/12/22 12:54:37;;;;;;;16.40;12.10;;;;;;;8.95;100.00;99648.09;5058628;28;20225;-82
2022/12/22 12:57:12;;;;;;;14.80;10.87;;;;;;;8.95;100.00;99664.03;5042917;28;20220;-83
2022/12/22 12:59:46;;;;;;;16.33;11.67;;;;;;;8.95;100.00;99668.47;5050375;28;20675;-82
2022/12/22 13:02:35;;;;;;;16.20;12.50;;;;;;;8.92;100.00;99668.69;5044140;28;20221;-83
2022/12/22 13:05:17;;;;;;;14.77;10.97;;;;;;;8.91;100.00;99672.31;5052800;28;20201;-83
2022/12/22 13:08:20;;;;;;;16.53;12.33;;;;;;;8.91;100.00;99665.19;5041768;28;20205;-83
2022/12/22 13:11:23;;;;;;;14.17;11.07;;;;;;;8.91;100.00;99672.31;5055509;28;20200;-83
2022/12/22 13:13:52;;;;;;;12.80;9.73;;;;;;;8.89;100.00;99676.88;5045614;28;20231;-81
2022/12/22 13:16:31;;;;;;;13.70;10.43;;;;;;;8.90;100.00;99676.78;5052574;28;20289;-80
2022/12/22 13:18:58;;;;;;;13.70;10.80;;;;;;;8.91;100.00;99688.25;5052184;28;20208;-82
2022/12/22 13:21:29;;;;;;;13.33;9.67;;;;;;;8.90;100.00;99684.75;5046638;28;20234;-83
2022/12/22 13:24:03;;;;;;;13.07;11.43;;;;;;;8.90;100.00;99692.69;5059877;28;20221;-82
2022/12/22 13:26:33;;;;;;;11.37;8.93;;;;;;;8.89;100.00;99696.31;5049271;28;20193;-84
2022/12/22 13:29:08;;;;;;;11.93;8.87;;;;;;;8.88;100.00;99702.59;5043955;28;20689;-85
2022/12/22 13:31:40;;;;;;;11.60;9.47;;;;;;;8.88;100.00;99707.91;5050326;28;20206;-84
2022/12/22 13:34:29;;;;;;;11.93;9.30;;;;;;;8.87;100.00;99708.00;5056535;28;20228;-82
2022/12/22 13:36:57;;;;;;;13.13;10.33;;;;;;;8.85;100.00;99713.41;5050955;28;20664;-82
2022/12/22 13:39:23;;;;;;;11.13;8.60;;;;;;;8.85;100.00;99729.34;5037270;28;20214;-82
2022/12/22 13:41:51;;;;;;;12.03;8.33;;;;;;;8.84;100.00;99718.84;5047716;28;20554;-82
2022/12/22 13:44:25;;;;;;;11.60;8.90;;;;;;;8.85;100.00;99733.81;5050289;28;20220;-83
2022/12/22 13:46:53;;;;;;;13.70;9.80;;;;;;;8.83;100.00;99736.56;5044051;28;20568;-82
2022/12/22 13:49:29;;;;;;;10.87;8.97;;;;;;;8.82;100.00;99740.19;5048663;28;20209;-83
2022/12/22 13:51:56;;;;;;;11.60;9.03;;;;;;;8.79;100.00;99744.84;5041908;28;20201;-82
2022/12/22 13:54:28;;;;;;;13.13;9.77;;;;;;;8.78;100.00;99743.19;5052057;28;20574;-83
2022/12/22 13:56:58;;;;;;;11.87;8.53;;;;;;;8.75;100.00;99744.25;5038761;28;20206;-84
2022/12/22 13:59:29;;;;;;;14.53;9.43;;;;;;;8.73;100.00;99755.91;5040239;28;20201;-83
2022/12/22 14:02:00;;;;;;;14.20;8.97;;;;;;;8.68;100.00;99751.78;5045692;28;20217;-81
2022/12/22 14:04:30;;;;;;;13.60;8.97;;;;;;;8.64;100.00;99749.44;5044283;28;20205;-83
2022/12/22 14:06:56;;;;;;;14.83;9.53;;;;;;;8.59;100.00;99743.63;5041300;28;20293;-83
2022/12/22 14:09:24;;;;;;;12.57;9.30;;;;;;;8.54;100.00;99743.94;5052220;28;20219;-84
2022/12/22 14:11:54;;;;;;;15.17;10.33;;;;;;;8.50;100.00;99750.41;5055242;28;20585;-82
2022/12/22 14:14:25;;;;;;;15.43;11.10;;;;;;;8.48;100.00;99757.59;5045960;28;20693;-83
2022/12/22 14:16:55;;;;;;;14.07;8.67;;;;;;;8.44;100.00;99758.75;5049329;28;20209;-83
2022/12/22 14:19:23;;;;;;;10.60;8.07;;;;;;;8.40;100.00;99757.31;5054861;28;20672;-84
2022/12/22 14:22:03;;;;;;;11.43;8.60;;;;;;;8.38;100.00;99755.69;5051610;28;20667;-84
2022/12/22 14:24:35;;;;;;;11.70;7.90;;;;;;;8.33;100.00;99762.16;5059332;28;20198;-85
2022/12/22 14:27:02;;;;;;;19.60;11.60;;;;;;;8.29;100.00;99760.63;5040334;28;20209;-83
2022/12/22 14:29:30;;;;;;;12.60;7.67;;;;;;;8.26;100.00;99765.28;5049420;28;20193;-84
2022/12/22 14:32:00;;;;;;;10.93;8.10;;;;;;;8.21;100.00;99765.63;5042317;28;20230;-83
2022/12/22 14:34:28;;;;;;;10.27;7.80;;;;;;;8.16;100.00;99761.56;5048695;28;20226;-83
2022/12/22 14:36:55;;;;;;;12.00;9.40;;;;;;;8.14;100.00;99760.81;5059930;28;20208;-82
2022/12/22 14:39:23;;;;;;;10.90;8.03;;;;;;;8.08;100.00;99762.09;5050304;28;20671;-82
2022/12/22 14:41:53;;;;;;;11.10;7.97;;;;;;;8.05;100.00;99766.75;5065828;28;20205;-85
2022/12/22 14:44:23;;;;;;;9.93;8.50;;;;;;;8.01;100.00;99769.63;5051673;28;20198;-84
2022/12/22 14:47:05;;;;;;;11.07;8.70;;;;;;;7.97;100.00;99770.75;5062936;28;20217;-84
2022/12/22 14:49:33;;;;;;;10.60;8.23;;;;;;;7.94;100.00;99770.97;5053144;28;20254;-84
2022/12/22 14:52:19;;;;;;;12.83;8.90;;;;;;;7.90;100.00;99779.22;5046440;28;20592;-82
2022/12/22 14:54:48;;;;;;;11.50;8.73;;;;;;;7.87;100.00;99777.66;5042022;28;20224;-82
2022/12/22 14:57:19;;;;;;;10.20;7.90;;;;;;;7.84;100.00;99780.50;5043515;28;20223;-83
2022/12/22 14:59:59;;;;;;;11.00;8.40;;;;;;;7.78;100.00;99772.94;5050665;28;20201;-83
2022/12/22 15:02:29;;;;;;;7.90;6.93;;;;;;;7.76;100.00;99777.47;5050881;28;20229;-82
2022/12/22 15:05:13;;;;;;;13.73;8.93;;;;;;;7.73;100.00;99785.63;5050746;28;20209;-82
2022/12/22 15:07:47;;;;;;;14.73;10.77;;;;;;;7.70;100.00;99798.25;5048386;28;20236;-82
2022/12/22 15:10:14;;;;;;;12.40;9.77;;;;;;;7.65;100.00;99804.69;5047973;28;20206;-82
2022/12/22 15:12:41;;;;;;;11.80;8.13;;;;;;;7.65;100.00;99817.94;5055129;28;20217;-83
2022/12/22 15:15:14;;;;;;;11.37;9.03;;;;;;;7.63;100.00;99825.13;5057074;28;20233;-84
2022/12/22 15:17:44;;;;;;;12.77;8.17;;;;;;;7.61;100.00;99826.19;5054493;28;20217;-82